sensor_id;sensor_type;location;lat;lon;timestamp;P1;durP1;ratioP1;P2;durP2;ratioP2
18125;SDS011;53956;52.442;13.284;2022-10-16T00:00:29;3.35;;;2.72;;
18125;SDS011;53956;52.442;13.284;2022-10-16T00:02:56;3.00;;;2.70;;
18125;SDS011;53956;52.442;13.284;2022-10-16T00:05:23;2.67;;;2.47;;
18125;SDS011;53956;52.442;13.284;2022-10-16T00:07:50;2.90;;;2.60;;
18125;SDS011;53956;52.442;13.284;2022-10-16T00:10:16;4.50;;;2.60;;
18125;SDS011;53956;52.442;13.284;2022-10-16T00:12:44;2.83;;;2.55;;
18125;SDS011;53956;52.442;13.284;2022-10-16T00:15:11;2.65;;;2.45;;
18125;SDS011;53956;52.442;13.284;2022-10-16T00:17:37;2.80;;;2.53;;
18125;SDS011;53956;52.442;13.284;2022-10-16T00:20:05;3.03;;;2.72;;
18125;SDS011;53956;52.442;13.284;2022-10-16T00:22:32;2.95;;;2.65;;
18125;SDS011;53956;52.442;13.284;2022-10-16T00:24:59;3.60;;;2.53;;
18125;SDS011;53956;52.442;13.284;2022-10-16T00:27:26;4.03;;;2.45;;
18125;SDS011;53956;52.442;13.284;2022-10-16T00:29:54;4.15;;;2.47;;
18125;SDS011;53956;52.442;13.284;2022-10-16T00:32:20;3.00;;;2.40;;
18125;SDS011;53956;52.442;13.284;2022-10-16T00:34:47;3.47;;;2.50;;
18125;SDS011;53956;52.442;13.284;2022-10-16T00:37:14;3.65;;;2.60;;
18125;SDS011;53956;52.442;13.284;2022-10-16T00:39:40;4.25;;;2.60;;
18125;SDS011;53956;52.442;13.284;2022-10-16T00:42:09;3.40;;;2.47;;
18125;SDS011;53956;52.442;13.284;2022-10-16T00:44:42;2.60;;;2.40;;
18125;SDS011;53956;52.442;13.284;2022-10-16T00:47:15;2.92;;;2.60;;
18125;SDS011;53956;52.442;13.284;2022-10-16T00:49:44;3.40;;;2.35;;
18125;SDS011;53956;52.442;13.284;2022-10-16T00:52:12;2.80;;;2.53;;
18125;SDS011;53956;52.442;13.284;2022-10-16T00:54:40;2.70;;;2.50;;
18125;SDS011;53956;52.442;13.284;2022-10-16T00:57:07;2.60;;;2.40;;
18125;SDS011;53956;52.442;13.284;2022-10-16T00:59:34;2.88;;;2.58;;
18125;SDS011;53956;52.442;13.284;2022-10-16T01:02:03;2.50;;;2.30;;
18125;SDS011;53956;52.442;13.284;2022-10-16T01:04:35;2.70;;;2.50;;
18125;SDS011;53956;52.442;13.284;2022-10-16T01:07:06;2.40;;;2.20;;
18125;SDS011;53956;52.442;13.284;2022-10-16T01:09:41;2.53;;;2.33;;
18125;SDS011;53956;52.442;13.284;2022-10-16T01:12:15;2.88;;;2.60;;
18125;SDS011;53956;52.442;13.284;2022-10-16T01:14:51;3.72;;;2.38;;
18125;SDS011;53956;52.442;13.284;2022-10-16T01:17:22;5.40;;;2.88;;
18125;SDS011;53956;52.442;13.284;2022-10-16T01:20:05;2.72;;;2.38;;
18125;SDS011;53956;52.442;13.284;2022-10-16T01:22:43;6.60;;;2.40;;
18125;SDS011;53956;52.442;13.284;2022-10-16T01:25:22;2.50;;;2.22;;
18125;SDS011;53956;52.442;13.284;2022-10-16T01:27:57;2.58;;;2.38;;
18125;SDS011;53956;52.442;13.284;2022-10-16T01:30:27;4.10;;;2.50;;
18125;SDS011;53956;52.442;13.284;2022-10-16T01:32:59;3.80;;;2.15;;
18125;SDS011;53956;52.442;13.284;2022-10-16T01:35:29;2.75;;;2.22;;
18125;SDS011;53956;52.442;13.284;2022-10-16T01:37:58;3.40;;;2.40;;
18125;SDS011;53956;52.442;13.284;2022-10-16T01:40:29;2.80;;;2.47;;
18125;SDS011;53956;52.442;13.284;2022-10-16T01:43:01;2.97;;;2.67;;
18125;SDS011;53956;52.442;13.284;2022-10-16T01:45:31;2.97;;;2.53;;
18125;SDS011;53956;52.442;13.284;2022-10-16T01:48:00;3.80;;;2.60;;
18125;SDS011;53956;52.442;13.284;2022-10-16T01:50:29;2.50;;;2.30;;
18125;SDS011;53956;52.442;13.284;2022-10-16T01:52:57;2.83;;;2.30;;
18125;SDS011;53956;52.442;13.284;2022-10-16T01:55:27;3.38;;;2.38;;
18125;SDS011;53956;52.442;13.284;2022-10-16T01:57:55;3.05;;;2.22;;
18125;SDS011;53956;52.442;13.284;2022-10-16T02:00:26;2.72;;;2.10;;
18125;SDS011;53956;52.442;13.284;2022-10-16T02:02:55;2.70;;;2.40;;
18125;SDS011;53956;52.442;13.284;2022-10-16T02:05:25;5.75;;;2.40;;
18125;SDS011;53956;52.442;13.284;2022-10-16T02:07:54;2.83;;;2.50;;
18125;SDS011;53956;52.442;13.284;2022-10-16T02:10:21;2.50;;;2.30;;
18125;SDS011;53956;52.442;13.284;2022-10-16T02:12:50;3.80;;;2.55;;
18125;SDS011;53956;52.442;13.284;2022-10-16T02:15:22;4.35;;;2.50;;
18125;SDS011;53956;52.442;13.284;2022-10-16T02:17:50;2.40;;;2.20;;
18125;SDS011;53956;52.442;13.284;2022-10-16T02:20:16;2.75;;;2.40;;
18125;SDS011;53956;52.442;13.284;2022-10-16T02:22:46;2.72;;;2.30;;
18125;SDS011;53956;52.442;13.284;2022-10-16T02:25:17;2.95;;;2.38;;
18125;SDS011;53956;52.442;13.284;2022-10-16T02:27:50;2.63;;;2.40;;
18125;SDS011;53956;52.442;13.284;2022-10-16T02:30:21;3.55;;;2.13;;
18125;SDS011;53956;52.442;13.284;2022-10-16T02:32:52;3.38;;;2.08;;
18125;SDS011;53956;52.442;13.284;2022-10-16T02:35:21;5.65;;;2.30;;
18125;SDS011;53956;52.442;13.284;2022-10-16T02:37:49;3.65;;;2.15;;
18125;SDS011;53956;52.442;13.284;2022-10-16T02:40:17;3.08;;;2.38;;
18125;SDS011;53956;52.442;13.284;2022-10-16T02:42:44;2.30;;;2.10;;
18125;SDS011;53956;52.442;13.284;2022-10-16T02:45:15;3.42;;;2.30;;
18125;SDS011;53956;52.442;13.284;2022-10-16T02:47:43;3.13;;;2.38;;
18125;SDS011;53956;52.442;13.284;2022-10-16T02:50:11;2.42;;;2.22;;
18125;SDS011;53956;52.442;13.284;2022-10-16T02:52:37;2.40;;;2.20;;
18125;SDS011;53956;52.442;13.284;2022-10-16T02:55:04;3.03;;;2.20;;
18125;SDS011;53956;52.442;13.284;2022-10-16T02:57:31;2.42;;;2.22;;
18125;SDS011;53956;52.442;13.284;2022-10-16T02:59:58;2.55;;;2.35;;
18125;SDS011;53956;52.442;13.284;2022-10-16T03:02:25;2.42;;;2.22;;
18125;SDS011;53956;52.442;13.284;2022-10-16T03:04:51;2.53;;;2.30;;
18125;SDS011;53956;52.442;13.284;2022-10-16T03:07:19;4.22;;;2.22;;
18125;SDS011;53956;52.442;13.284;2022-10-16T03:09:46;3.17;;;2.42;;
18125;SDS011;53956;52.442;13.284;2022-10-16T03:12:12;2.47;;;2.28;;
18125;SDS011;53956;52.442;13.284;2022-10-16T03:14:39;3.20;;;2.70;;
18125;SDS011;53956;52.442;13.284;2022-10-16T03:17:06;3.30;;;2.63;;
18125;SDS011;53956;52.442;13.284;2022-10-16T03:19:32;4.38;;;2.60;;
18125;SDS011;53956;52.442;13.284;2022-10-16T03:21:59;2.40;;;2.17;;
18125;SDS011;53956;52.442;13.284;2022-10-16T03:24:27;2.53;;;2.22;;
18125;SDS011;53956;52.442;13.284;2022-10-16T03:26:54;5.07;;;2.55;;
18125;SDS011;53956;52.442;13.284;2022-10-16T03:29:20;2.65;;;2.40;;
18125;SDS011;53956;52.442;13.284;2022-10-16T03:31:47;2.40;;;2.20;;
18125;SDS011;53956;52.442;13.284;2022-10-16T03:34:14;3.38;;;2.58;;
18125;SDS011;53956;52.442;13.284;2022-10-16T03:36:41;2.47;;;2.17;;
18125;SDS011;53956;52.442;13.284;2022-10-16T03:39:07;3.10;;;2.30;;
18125;SDS011;53956;52.442;13.284;2022-10-16T03:41:35;2.38;;;2.17;;
18125;SDS011;53956;52.442;13.284;2022-10-16T03:44:02;3.80;;;2.10;;
18125;SDS011;53956;52.442;13.284;2022-10-16T03:46:28;4.47;;;2.40;;
18125;SDS011;53956;52.442;13.284;2022-10-16T03:48:55;2.33;;;2.13;;
18125;SDS011;53956;52.442;13.284;2022-10-16T03:51:22;2.90;;;2.67;;
18125;SDS011;53956;52.442;13.284;2022-10-16T03:53:48;2.85;;;2.30;;
18125;SDS011;53956;52.442;13.284;2022-10-16T03:56:15;2.95;;;2.35;;
18125;SDS011;53956;52.442;13.284;2022-10-16T03:58:43;3.28;;;2.13;;
18125;SDS011;53956;52.442;13.284;2022-10-16T04:01:10;2.65;;;2.30;;
18125;SDS011;53956;52.442;13.284;2022-10-16T04:03:36;3.67;;;2.80;;
18125;SDS011;53956;52.442;13.284;2022-10-16T04:06:03;2.50;;;2.30;;
18125;SDS011;53956;52.442;13.284;2022-10-16T04:08:30;2.60;;;2.40;;
18125;SDS011;53956;52.442;13.284;2022-10-16T04:10:59;3.60;;;2.40;;
18125;SDS011;53956;52.442;13.284;2022-10-16T04:13:25;3.47;;;2.42;;
18125;SDS011;53956;52.442;13.284;2022-10-16T04:15:53;2.72;;;2.30;;
18125;SDS011;53956;52.442;13.284;2022-10-16T04:18:20;2.80;;;2.47;;
18125;SDS011;53956;52.442;13.284;2022-10-16T04:20:47;2.85;;;2.33;;
18125;SDS011;53956;52.442;13.284;2022-10-16T04:23:13;2.80;;;2.28;;
18125;SDS011;53956;52.442;13.284;2022-10-16T04:25:40;3.00;;;2.53;;
18125;SDS011;53956;52.442;13.284;2022-10-16T04:28:07;2.58;;;2.38;;
18125;SDS011;53956;52.442;13.284;2022-10-16T04:30:33;3.47;;;2.60;;
18125;SDS011;53956;52.442;13.284;2022-10-16T04:33:01;3.67;;;2.45;;
18125;SDS011;53956;52.442;13.284;2022-10-16T04:35:28;3.28;;;2.70;;
18125;SDS011;53956;52.442;13.284;2022-10-16T04:37:56;3.25;;;2.90;;
18125;SDS011;53956;52.442;13.284;2022-10-16T04:40:23;3.60;;;2.50;;
18125;SDS011;53956;52.442;13.284;2022-10-16T04:42:50;3.10;;;2.75;;
18125;SDS011;53956;52.442;13.284;2022-10-16T04:45:16;5.07;;;2.50;;
18125;SDS011;53956;52.442;13.284;2022-10-16T04:47:43;3.25;;;2.70;;
18125;SDS011;53956;52.442;13.284;2022-10-16T04:50:11;3.60;;;2.85;;
18125;SDS011;53956;52.442;13.284;2022-10-16T04:52:37;3.20;;;2.63;;
18125;SDS011;53956;52.442;13.284;2022-10-16T04:55:04;2.75;;;2.53;;
18125;SDS011;53956;52.442;13.284;2022-10-16T04:57:32;3.40;;;2.67;;
18125;SDS011;53956;52.442;13.284;2022-10-16T04:59:59;5.22;;;2.70;;
18125;SDS011;53956;52.442;13.284;2022-10-16T05:02:25;5.25;;;2.67;;
18125;SDS011;53956;52.442;13.284;2022-10-16T05:04:52;3.03;;;2.72;;
18125;SDS011;53956;52.442;13.284;2022-10-16T05:07:20;3.53;;;2.55;;
18125;SDS011;53956;52.442;13.284;2022-10-16T05:09:46;2.65;;;2.45;;
18125;SDS011;53956;52.442;13.284;2022-10-16T05:12:13;2.55;;;2.35;;
18125;SDS011;53956;52.442;13.284;2022-10-16T05:14:40;3.80;;;2.80;;
18125;SDS011;53956;52.442;13.284;2022-10-16T05:17:06;3.28;;;2.45;;
18125;SDS011;53956;52.442;13.284;2022-10-16T05:19:33;2.85;;;2.47;;
18125;SDS011;53956;52.442;13.284;2022-10-16T05:21:59;4.65;;;2.65;;
18125;SDS011;53956;52.442;13.284;2022-10-16T05:24:27;3.80;;;2.80;;
18125;SDS011;53956;52.442;13.284;2022-10-16T05:26:54;4.90;;;2.53;;
18125;SDS011;53956;52.442;13.284;2022-10-16T05:29:21;3.80;;;2.80;;
18125;SDS011;53956;52.442;13.284;2022-10-16T05:31:49;5.30;;;2.63;;
18125;SDS011;53956;52.442;13.284;2022-10-16T05:34:17;2.60;;;2.40;;
18125;SDS011;53956;52.442;13.284;2022-10-16T05:36:44;3.08;;;2.45;;
18125;SDS011;53956;52.442;13.284;2022-10-16T05:39:11;2.92;;;2.63;;
18125;SDS011;53956;52.442;13.284;2022-10-16T05:41:39;3.78;;;2.83;;
18125;SDS011;53956;52.442;13.284;2022-10-16T05:44:05;2.72;;;2.50;;
18125;SDS011;53956;52.442;13.284;2022-10-16T05:46:32;3.10;;;2.80;;
18125;SDS011;53956;52.442;13.284;2022-10-16T05:48:59;3.35;;;2.90;;
18125;SDS011;53956;52.442;13.284;2022-10-16T05:51:25;4.25;;;3.08;;
18125;SDS011;53956;52.442;13.284;2022-10-16T05:53:52;3.30;;;3.00;;
18125;SDS011;53956;52.442;13.284;2022-10-16T05:56:19;4.45;;;3.10;;
18125;SDS011;53956;52.442;13.284;2022-10-16T05:58:47;3.33;;;3.03;;
18125;SDS011;53956;52.442;13.284;2022-10-16T06:01:15;3.45;;;3.15;;
18125;SDS011;53956;52.442;13.284;2022-10-16T06:03:42;4.28;;;3.28;;
18125;SDS011;53956;52.442;13.284;2022-10-16T06:06:10;4.10;;;3.20;;
18125;SDS011;53956;52.442;13.284;2022-10-16T06:08:37;4.18;;;2.75;;
18125;SDS011;53956;52.442;13.284;2022-10-16T06:11:06;5.15;;;2.95;;
18125;SDS011;53956;52.442;13.284;2022-10-16T06:13:34;7.13;;;3.08;;
18125;SDS011;53956;52.442;13.284;2022-10-16T06:16:02;3.65;;;2.85;;
18125;SDS011;53956;52.442;13.284;2022-10-16T06:18:30;5.15;;;3.30;;
18125;SDS011;53956;52.442;13.284;2022-10-16T06:20:57;4.72;;;3.25;;
18125;SDS011;53956;52.442;13.284;2022-10-16T06:23:24;4.78;;;3.28;;
18125;SDS011;53956;52.442;13.284;2022-10-16T06:25:51;3.60;;;3.20;;
18125;SDS011;53956;52.442;13.284;2022-10-16T06:28:17;3.50;;;3.20;;
18125;SDS011;53956;52.442;13.284;2022-10-16T06:30:44;4.63;;;3.40;;
18125;SDS011;53956;52.442;13.284;2022-10-16T06:33:12;5.78;;;3.20;;
18125;SDS011;53956;52.442;13.284;2022-10-16T06:35:39;4.20;;;3.10;;
18125;SDS011;53956;52.442;13.284;2022-10-16T06:38:07;4.22;;;3.10;;
18125;SDS011;53956;52.442;13.284;2022-10-16T06:40:33;4.47;;;3.20;;
18125;SDS011;53956;52.442;13.284;2022-10-16T06:43:00;3.40;;;3.10;;
18125;SDS011;53956;52.442;13.284;2022-10-16T06:45:26;3.60;;;3.13;;
18125;SDS011;53956;52.442;13.284;2022-10-16T06:47:53;5.50;;;3.70;;
18125;SDS011;53956;52.442;13.284;2022-10-16T06:50:21;5.82;;;3.28;;
18125;SDS011;53956;52.442;13.284;2022-10-16T06:52:48;5.55;;;2.95;;
18125;SDS011;53956;52.442;13.284;2022-10-16T06:55:15;4.70;;;3.00;;
18125;SDS011;53956;52.442;13.284;2022-10-16T06:57:42;4.05;;;2.85;;
18125;SDS011;53956;52.442;13.284;2022-10-16T07:00:09;4.43;;;2.17;;
18125;SDS011;53956;52.442;13.284;2022-10-16T07:02:36;5.38;;;2.80;;
18125;SDS011;53956;52.442;13.284;2022-10-16T07:05:02;3.42;;;3.13;;
18125;SDS011;53956;52.442;13.284;2022-10-16T07:07:31;4.90;;;2.80;;
18125;SDS011;53956;52.442;13.284;2022-10-16T07:09:57;3.70;;;3.20;;
18125;SDS011;53956;52.442;13.284;2022-10-16T07:12:24;4.55;;;3.17;;
18125;SDS011;53956;52.442;13.284;2022-10-16T07:14:51;6.30;;;3.50;;
18125;SDS011;53956;52.442;13.284;2022-10-16T07:17:19;3.35;;;2.95;;
18125;SDS011;53956;52.442;13.284;2022-10-16T07:19:45;3.30;;;2.80;;
18125;SDS011;53956;52.442;13.284;2022-10-16T07:22:12;2.70;;;2.50;;
18125;SDS011;53956;52.442;13.284;2022-10-16T07:24:40;3.35;;;2.50;;
18125;SDS011;53956;52.442;13.284;2022-10-16T07:27:08;6.15;;;2.78;;
18125;SDS011;53956;52.442;13.284;2022-10-16T07:29:35;2.70;;;2.50;;
18125;SDS011;53956;52.442;13.284;2022-10-16T07:32:02;5.30;;;2.20;;
18125;SDS011;53956;52.442;13.284;2022-10-16T07:34:28;2.33;;;2.13;;
18125;SDS011;53956;52.442;13.284;2022-10-16T07:36:55;4.72;;;2.75;;
18125;SDS011;53956;52.442;13.284;2022-10-16T07:39:22;2.45;;;2.25;;
18125;SDS011;53956;52.442;13.284;2022-10-16T07:41:50;2.85;;;2.35;;
18125;SDS011;53956;52.442;13.284;2022-10-16T07:44:16;2.60;;;2.40;;
18125;SDS011;53956;52.442;13.284;2022-10-16T07:46:43;4.53;;;2.78;;
18125;SDS011;53956;52.442;13.284;2022-10-16T07:49:10;3.33;;;2.33;;
18125;SDS011;53956;52.442;13.284;2022-10-16T07:51:36;2.83;;;2.10;;
18125;SDS011;53956;52.442;13.284;2022-10-16T07:54:04;4.18;;;2.30;;
18125;SDS011;53956;52.442;13.284;2022-10-16T07:56:30;3.65;;;2.30;;
18125;SDS011;53956;52.442;13.284;2022-10-16T07:58:59;2.75;;;2.17;;
18125;SDS011;53956;52.442;13.284;2022-10-16T08:01:25;2.70;;;2.08;;
18125;SDS011;53956;52.442;13.284;2022-10-16T08:03:52;2.90;;;1.98;;
18125;SDS011;53956;52.442;13.284;2022-10-16T08:06:20;2.45;;;1.95;;
18125;SDS011;53956;52.442;13.284;2022-10-16T08:08:47;2.50;;;1.90;;
18125;SDS011;53956;52.442;13.284;2022-10-16T08:11:14;3.88;;;1.95;;
18125;SDS011;53956;52.442;13.284;2022-10-16T08:13:41;4.63;;;2.22;;
18125;SDS011;53956;52.442;13.284;2022-10-16T08:16:09;3.88;;;2.13;;
18125;SDS011;53956;52.442;13.284;2022-10-16T08:18:36;2.67;;;1.90;;
18125;SDS011;53956;52.442;13.284;2022-10-16T08:21:04;2.35;;;2.10;;
18125;SDS011;53956;52.442;13.284;2022-10-16T08:23:32;2.38;;;1.80;;
18125;SDS011;53956;52.442;13.284;2022-10-16T08:26:01;2.20;;;2.00;;
18125;SDS011;53956;52.442;13.284;2022-10-16T08:28:29;3.28;;;2.30;;
18125;SDS011;53956;52.442;13.284;2022-10-16T08:30:56;3.95;;;2.08;;
18125;SDS011;53956;52.442;13.284;2022-10-16T08:33:31;3.05;;;1.90;;
18125;SDS011;53956;52.442;13.284;2022-10-16T08:35:59;2.20;;;2.00;;
18125;SDS011;53956;52.442;13.284;2022-10-16T08:38:26;3.30;;;2.20;;
18125;SDS011;53956;52.442;13.284;2022-10-16T08:40:53;3.05;;;2.10;;
18125;SDS011;53956;52.442;13.284;2022-10-16T08:43:35;3.13;;;2.20;;
18125;SDS011;53956;52.442;13.284;2022-10-16T08:46:20;1.88;;;1.77;;
18125;SDS011;53956;52.442;13.284;2022-10-16T08:48:59;2.50;;;2.10;;
18125;SDS011;53956;52.442;13.284;2022-10-16T08:51:39;2.28;;;1.90;;
18125;SDS011;53956;52.442;13.284;2022-10-16T08:54:31;2.53;;;2.30;;
18125;SDS011;53956;52.442;13.284;2022-10-16T08:57:46;2.47;;;2.28;;
18125;SDS011;53956;52.442;13.284;2022-10-16T09:07:43;2.35;;;1.95;;
18125;SDS011;53956;52.442;13.284;2022-10-16T09:10:19;2.20;;;2.00;;
18125;SDS011;53956;52.442;13.284;2022-10-16T09:12:55;7.22;;;2.03;;
18125;SDS011;53956;52.442;13.284;2022-10-16T09:15:29;7.22;;;1.80;;
18125;SDS011;53956;52.442;13.284;2022-10-16T09:18:03;3.03;;;2.00;;
18125;SDS011;53956;52.442;13.284;2022-10-16T09:20:44;3.40;;;1.83;;
18125;SDS011;53956;52.442;13.284;2022-10-16T09:23:18;5.93;;;1.70;;
18125;SDS011;53956;52.442;13.284;2022-10-16T09:25:47;3.97;;;1.73;;
18125;SDS011;53956;52.442;13.284;2022-10-16T09:28:17;12.70;;;2.47;;
18125;SDS011;53956;52.442;13.284;2022-10-16T09:30:48;2.65;;;1.70;;
18125;SDS011;53956;52.442;13.284;2022-10-16T09:33:18;3.70;;;1.88;;
18125;SDS011;53956;52.442;13.284;2022-10-16T09:35:50;8.48;;;1.70;;
18125;SDS011;53956;52.442;13.284;2022-10-16T09:38:29;3.83;;;1.50;;
18125;SDS011;53956;52.442;13.284;2022-10-16T09:41:13;2.97;;;1.55;;
18125;SDS011;53956;52.442;13.284;2022-10-16T09:43:52;2.85;;;1.73;;
18125;SDS011;53956;52.442;13.284;2022-10-16T09:46:32;2.30;;;1.48;;
18125;SDS011;53956;52.442;13.284;2022-10-16T09:49:04;1.60;;;1.50;;
18125;SDS011;53956;52.442;13.284;2022-10-16T09:51:45;2.45;;;1.55;;
18125;SDS011;53956;52.442;13.284;2022-10-16T09:54:15;3.47;;;1.70;;
18125;SDS011;53956;52.442;13.284;2022-10-16T09:56:42;2.20;;;1.45;;
18125;SDS011;53956;52.442;13.284;2022-10-16T09:59:11;2.15;;;1.65;;
18125;SDS011;53956;52.442;13.284;2022-10-16T10:01:40;3.08;;;1.65;;
18125;SDS011;53956;52.442;13.284;2022-10-16T10:04:08;5.25;;;1.60;;
18125;SDS011;53956;52.442;13.284;2022-10-16T10:06:36;4.03;;;1.70;;
18125;SDS011;53956;52.442;13.284;2022-10-16T10:09:15;2.17;;;1.60;;
18125;SDS011;53956;52.442;13.284;2022-10-16T10:11:46;2.33;;;1.60;;
18125;SDS011;53956;52.442;13.284;2022-10-16T10:14:17;2.45;;;1.65;;
18125;SDS011;53956;52.442;13.284;2022-10-16T10:16:46;2.13;;;1.60;;
18125;SDS011;53956;52.442;13.284;2022-10-16T10:19:14;2.67;;;1.55;;
18125;SDS011;53956;52.442;13.284;2022-10-16T10:21:42;2.00;;;1.60;;
18125;SDS011;53956;52.442;13.284;2022-10-16T10:24:10;4.10;;;1.50;;
18125;SDS011;53956;52.442;13.284;2022-10-16T10:26:39;1.60;;;1.50;;
18125;SDS011;53956;52.442;13.284;2022-10-16T10:29:12;1.50;;;1.40;;
18125;SDS011;53956;52.442;13.284;2022-10-16T10:31:49;2.97;;;1.90;;
18125;SDS011;53956;52.442;13.284;2022-10-16T10:34:30;1.92;;;1.52;;
18125;SDS011;53956;52.442;13.284;2022-10-16T10:37:09;2.67;;;1.50;;
18125;SDS011;53956;52.442;13.284;2022-10-16T10:39:55;2.58;;;1.70;;
18125;SDS011;53956;52.442;13.284;2022-10-16T10:42:31;1.92;;;1.40;;
18125;SDS011;53956;52.442;13.284;2022-10-16T10:45:18;2.20;;;1.45;;
18125;SDS011;53956;52.442;13.284;2022-10-16T10:47:54;3.42;;;1.55;;
18125;SDS011;53956;52.442;13.284;2022-10-16T10:50:33;1.40;;;1.30;;
18125;SDS011;53956;52.442;13.284;2022-10-16T10:53:07;3.05;;;1.40;;
18125;SDS011;53956;52.442;13.284;2022-10-16T10:55:43;2.10;;;1.33;;
18125;SDS011;53956;52.442;13.284;2022-10-16T10:58:20;4.13;;;1.20;;
18125;SDS011;53956;52.442;13.284;2022-10-16T11:00:57;3.42;;;1.33;;
18125;SDS011;53956;52.442;13.284;2022-10-16T11:03:35;2.50;;;1.20;;
18125;SDS011;53956;52.442;13.284;2022-10-16T11:06:13;3.05;;;1.40;;
18125;SDS011;53956;52.442;13.284;2022-10-16T11:08:45;2.35;;;1.40;;
18125;SDS011;53956;52.442;13.284;2022-10-16T11:11:16;2.40;;;1.48;;
18125;SDS011;53956;52.442;13.284;2022-10-16T11:13:50;3.00;;;1.25;;
18125;SDS011;53956;52.442;13.284;2022-10-16T11:16:22;1.77;;;1.35;;
18125;SDS011;53956;52.442;13.284;2022-10-16T11:18:55;3.10;;;1.30;;
18125;SDS011;53956;52.442;13.284;2022-10-16T11:21:25;1.20;;;1.10;;
18125;SDS011;53956;52.442;13.284;2022-10-16T11:23:57;4.15;;;1.30;;
18125;SDS011;53956;52.442;13.284;2022-10-16T11:26:28;2.72;;;1.17;;
18125;SDS011;53956;52.442;13.284;2022-10-16T11:29:01;1.75;;;1.30;;
18125;SDS011;53956;52.442;13.284;2022-10-16T11:31:34;1.17;;;1.05;;
18125;SDS011;53956;52.442;13.284;2022-10-16T11:34:05;1.98;;;1.20;;
18125;SDS011;53956;52.442;13.284;2022-10-16T11:36:42;2.15;;;1.02;;
18125;SDS011;53956;52.442;13.284;2022-10-16T11:39:18;2.47;;;1.00;;
18125;SDS011;53956;52.442;13.284;2022-10-16T11:41:47;2.35;;;1.25;;
18125;SDS011;53956;52.442;13.284;2022-10-16T11:44:23;2.92;;;1.30;;
18125;SDS011;53956;52.442;13.284;2022-10-16T11:47:01;1.90;;;1.10;;
18125;SDS011;53956;52.442;13.284;2022-10-16T11:49:37;1.20;;;1.00;;
18125;SDS011;53956;52.442;13.284;2022-10-16T11:52:07;2.50;;;1.10;;
18125;SDS011;53956;52.442;13.284;2022-10-16T11:54:42;1.60;;;1.00;;
18125;SDS011;53956;52.442;13.284;2022-10-16T11:57:14;1.65;;;1.05;;
18125;SDS011;53956;52.442;13.284;2022-10-16T11:59:46;2.53;;;1.02;;
18125;SDS011;53956;52.442;13.284;2022-10-16T12:02:28;2.58;;;1.30;;
18125;SDS011;53956;52.442;13.284;2022-10-16T12:05:12;1.30;;;1.02;;
18125;SDS011;53956;52.442;13.284;2022-10-16T12:07:47;2.90;;;1.00;;
18125;SDS011;53956;52.442;13.284;2022-10-16T12:10:22;1.50;;;1.10;;
18125;SDS011;53956;52.442;13.284;2022-10-16T12:12:51;1.73;;;0.98;;
18125;SDS011;53956;52.442;13.284;2022-10-16T12:15:20;0.90;;;0.90;;
18125;SDS011;53956;52.442;13.284;2022-10-16T12:17:49;3.80;;;1.00;;
18125;SDS011;53956;52.442;13.284;2022-10-16T12:23:03;1.55;;;1.13;;
18125;SDS011;53956;52.442;13.284;2022-10-16T12:25:32;2.58;;;1.20;;
18125;SDS011;53956;52.442;13.284;2022-10-16T12:28:00;1.05;;;1.00;;
18125;SDS011;53956;52.442;13.284;2022-10-16T12:30:31;2.22;;;1.00;;
18125;SDS011;53956;52.442;13.284;2022-10-16T12:33:00;2.95;;;0.90;;
18125;SDS011;53956;52.442;13.284;2022-10-16T12:35:29;0.80;;;0.80;;
18125;SDS011;53956;52.442;13.284;2022-10-16T12:38:05;1.08;;;0.80;;
18125;SDS011;53956;52.442;13.284;2022-10-16T12:40:34;2.92;;;0.80;;
18125;SDS011;53956;52.442;13.284;2022-10-16T12:43:13;2.50;;;0.90;;
18125;SDS011;53956;52.442;13.284;2022-10-16T12:46:00;1.20;;;1.00;;
18125;SDS011;53956;52.442;13.284;2022-10-16T12:48:29;2.65;;;1.08;;
18125;SDS011;53956;52.442;13.284;2022-10-16T12:50:56;0.90;;;0.77;;
18125;SDS011;53956;52.442;13.284;2022-10-16T12:53:23;1.45;;;0.85;;
18125;SDS011;53956;52.442;13.284;2022-10-16T12:55:58;2.17;;;0.98;;
18125;SDS011;53956;52.442;13.284;2022-10-16T12:58:37;0.80;;;0.80;;
18125;SDS011;53956;52.442;13.284;2022-10-16T13:01:25;1.50;;;0.80;;
18125;SDS011;53956;52.442;13.284;2022-10-16T13:04:03;2.45;;;0.90;;
18125;SDS011;53956;52.442;13.284;2022-10-16T13:06:45;1.80;;;0.82;;
18125;SDS011;53956;52.442;13.284;2022-10-16T13:09:37;1.27;;;1.10;;
18125;SDS011;53956;52.442;13.284;2022-10-16T13:15:15;2.08;;;0.90;;
18125;SDS011;53956;52.442;13.284;2022-10-16T13:17:54;2.25;;;0.88;;
18125;SDS011;53956;52.442;13.284;2022-10-16T13:20:29;1.67;;;0.90;;
18125;SDS011;53956;52.442;13.284;2022-10-16T13:23:03;2.20;;;0.93;;
18125;SDS011;53956;52.442;13.284;2022-10-16T13:25:39;2.83;;;0.95;;
18125;SDS011;53956;52.442;13.284;2022-10-16T13:28:13;1.45;;;0.90;;
18125;SDS011;53956;52.442;13.284;2022-10-16T13:30:42;1.05;;;0.90;;
18125;SDS011;53956;52.442;13.284;2022-10-16T13:33:14;2.20;;;0.90;;
18125;SDS011;53956;52.442;13.284;2022-10-16T13:35:47;1.00;;;0.90;;
18125;SDS011;53956;52.442;13.284;2022-10-16T13:38:16;3.05;;;0.93;;
18125;SDS011;53956;52.442;13.284;2022-10-16T13:40:50;3.67;;;1.10;;
18125;SDS011;53956;52.442;13.284;2022-10-16T13:43:19;2.45;;;1.00;;
18125;SDS011;53956;52.442;13.284;2022-10-16T13:45:59;1.10;;;0.90;;
18125;SDS011;53956;52.442;13.284;2022-10-16T13:48:28;2.05;;;0.90;;
18125;SDS011;53956;52.442;13.284;2022-10-16T13:53:41;2.67;;;0.90;;
18125;SDS011;53956;52.442;13.284;2022-10-16T13:56:10;1.75;;;1.00;;
18125;SDS011;53956;52.442;13.284;2022-10-16T13:58:38;3.40;;;1.10;;
18125;SDS011;53956;52.442;13.284;2022-10-16T14:01:06;3.40;;;1.17;;
18125;SDS011;53956;52.442;13.284;2022-10-16T14:03:44;2.50;;;1.17;;
18125;SDS011;53956;52.442;13.284;2022-10-16T14:06:12;1.65;;;1.00;;
18125;SDS011;53956;52.442;13.284;2022-10-16T14:08:43;3.42;;;1.10;;
18125;SDS011;53956;52.442;13.284;2022-10-16T14:11:12;3.50;;;1.00;;
18125;SDS011;53956;52.442;13.284;2022-10-16T14:13:39;3.28;;;0.90;;
18125;SDS011;53956;52.442;13.284;2022-10-16T14:16:15;2.97;;;0.90;;
18125;SDS011;53956;52.442;13.284;2022-10-16T14:18:46;2.65;;;1.00;;
18125;SDS011;53956;52.442;13.284;2022-10-16T14:21:19;1.83;;;1.00;;
18125;SDS011;53956;52.442;13.284;2022-10-16T14:23:46;2.08;;;1.00;;
18125;SDS011;53956;52.442;13.284;2022-10-16T14:26:13;1.30;;;1.10;;
18125;SDS011;53956;52.442;13.284;2022-10-16T14:28:43;2.30;;;0.93;;
18125;SDS011;53956;52.442;13.284;2022-10-16T14:31:24;1.92;;;0.95;;
18125;SDS011;53956;52.442;13.284;2022-10-16T14:33:57;3.30;;;1.00;;
18125;SDS011;53956;52.442;13.284;2022-10-16T14:36:25;2.15;;;1.00;;
18125;SDS011;53956;52.442;13.284;2022-10-16T14:38:57;2.75;;;1.20;;
18125;SDS011;53956;52.442;13.284;2022-10-16T14:41:27;1.55;;;1.00;;
18125;SDS011;53956;52.442;13.284;2022-10-16T14:43:54;3.30;;;1.10;;
18125;SDS011;53956;52.442;13.284;2022-10-16T14:46:27;2.55;;;1.10;;
18125;SDS011;53956;52.442;13.284;2022-10-16T14:48:59;2.35;;;1.00;;
18125;SDS011;53956;52.442;13.284;2022-10-16T14:51:28;2.05;;;0.90;;
18125;SDS011;53956;52.442;13.284;2022-10-16T14:53:55;1.90;;;0.90;;
18125;SDS011;53956;52.442;13.284;2022-10-16T14:56:22;2.05;;;1.00;;
18125;SDS011;53956;52.442;13.284;2022-10-16T14:58:51;2.45;;;1.20;;
18125;SDS011;53956;52.442;13.284;2022-10-16T15:01:18;1.20;;;0.90;;
18125;SDS011;53956;52.442;13.284;2022-10-16T15:03:46;5.43;;;1.50;;
18125;SDS011;53956;52.442;13.284;2022-10-16T15:06:15;2.15;;;1.33;;